Time;durP1;ratioP1;P1;durP2;ratioP2;P2;SDS_P1;SDS_P2;PMS_P1;PMS_P2;Temp;Humidity;BMP_temperature;BMP_pressure;BME280_temperature;BME280_humidity;BME280_pressure;Samples;Min_cycle;Max_cycle;Signal;HPM_P1;HPM_P2
2021/11/20 00:01:58;;;;;;;42.93;25.77;;;8.10;75.90;;;;;;5014946;28;20038;-69
2021/11/20 00:04:24;;;;;;;43.37;27.73;;;8.10;75.90;;;;;;5014376;28;20025;-69
2021/11/20 00:06:53;;;;;;;45.17;27.97;;;8.10;75.90;;;;;;5014833;28;20026;-69
2021/11/20 00:09:22;;;;;;;40.30;25.70;;;8.10;75.70;;;;;;5014928;28;20101;-69
2021/11/20 00:11:50;;;;;;;38.00;23.87;;;8.10;75.80;;;;;;5014972;28;20051;-69
2021/11/20 00:14:17;;;;;;;38.10;23.70;;;8.00;75.30;;;;;;5014852;28;20018;-69
2021/11/20 00:16:45;;;;;;;36.43;22.80;;;8.00;75.30;;;;;;5014772;28;20057;-69
2021/11/20 00:19:12;;;;;;;40.40;24.33;;;8.00;75.30;;;;;;5014857;28;20026;-69
2021/11/20 00:21:57;;;;;;;36.53;24.00;;;8.00;75.50;;;;;;5014583;28;20044;-69
2021/11/20 00:24:39;;;;;;;38.13;24.43;;;8.00;75.70;;;;;;5014334;28;20029;-69
2021/11/20 00:27:08;;;;;;;40.95;23.45;;;8.00;75.80;;;;;;5014613;28;20486;-69
2021/11/20 00:29:46;;;;;;;35.10;22.87;;;7.90;75.80;;;;;;5014526;28;20022;-70
2021/11/20 00:32:21;;;;;;;37.90;23.33;;;7.90;75.80;;;;;;5014633;28;20026;-69
2021/11/20 00:34:47;;;;;;;34.80;22.97;;;7.90;75.80;;;;;;5014542;28;20410;-69
2021/11/20 00:37:14;;;;;;;41.20;23.97;;;7.90;75.70;;;;;;5014451;28;20040;-69
2021/11/20 00:39:41;;;;;;;33.10;22.40;;;7.90;75.80;;;;;;4996767;28;20113;-69
2021/11/20 00:42:08;;;;;;;39.50;23.53;;;7.80;75.80;;;;;;5014477;28;20034;-69
2021/11/20 00:44:35;;;;;;;33.93;22.13;;;7.80;76.00;;;;;;4996551;28;20033;-69
2021/11/20 00:47:01;;;;;;;36.60;23.00;;;7.80;76.30;;;;;;5014322;28;20074;-70
2021/11/20 00:49:29;;;;;;;37.63;22.63;;;7.80;76.50;;;;;;5014281;28;20076;-69
2021/11/20 00:51:55;;;;;;;35.17;22.00;;;7.80;76.60;;;;;;5014116;28;20030;-69
2021/11/20 00:54:21;;;;;;;35.50;22.60;;;7.80;76.50;;;;;;5014207;28;20513;-69
2021/11/20 00:56:47;;;;;;;40.23;22.27;;;7.80;76.50;;;;;;5014065;28;20104;-70
2021/11/20 00:59:13;;;;;;;34.23;22.67;;;7.80;76.50;;;;;;5013554;28;20058;-69
2021/11/20 01:01:49;;;;;;;34.40;22.30;;;7.70;76.50;;;;;;5013816;28;20097;-69
2021/11/20 01:04:16;;;;;;;33.70;22.10;;;7.70;77.10;;;;;;5013780;28;20382;-69
2021/11/20 01:06:42;;;;;;;30.43;21.10;;;7.60;77.60;;;;;;5013833;28;20030;-69
2021/11/20 01:09:11;;;;;;;31.13;21.50;;;7.60;77.90;;;;;;5013789;28;20040;-69
2021/11/20 01:11:50;;;;;;;31.17;21.60;;;7.70;77.80;;;;;;5013644;28;20076;-69
2021/11/20 01:14:18;;;;;;;34.03;21.53;;;7.60;77.40;;;;;;5013847;28;20025;-69
2021/11/20 01:16:47;;;;;;;31.80;21.37;;;7.70;77.40;;;;;;5012888;28;20030;-69
2021/11/20 01:19:13;;;;;;;32.17;21.63;;;7.70;77.40;;;;;;5013688;28;20050;-69
2021/11/20 01:21:39;;;;;;;31.73;20.80;;;7.60;77.70;;;;;;5013359;28;20038;-70
2021/11/20 01:24:07;;;;;;;31.27;20.00;;;7.60;77.80;;;;;;4996074;28;20060;-69
2021/11/20 01:26:34;;;;;;;29.77;21.07;;;7.70;77.80;;;;;;5014062;28;20030;-69
2021/11/20 01:29:01;;;;;;;28.70;21.27;;;7.60;78.00;;;;;;5013568;28;20049;-69
2021/11/20 01:31:29;;;;;;;31.60;21.20;;;7.60;78.00;;;;;;5013735;28;20030;-69
2021/11/20 01:33:55;;;;;;;31.93;20.83;;;7.60;78.10;;;;;;5013557;28;20029;-69
2021/11/20 01:36:27;;;;;;;29.23;20.93;;;7.60;78.20;;;;;;4995970;28;20030;-69
2021/11/20 01:38:56;;;;;;;30.95;20.10;;;7.70;78.40;;;;;;5013378;28;20026;-69
2021/11/20 01:41:24;;;;;;;32.57;19.27;;;7.60;78.50;;;;;;5013297;28;20030;-70
2021/11/20 01:43:53;;;;;;;29.43;18.20;;;7.70;78.40;;;;;;5013360;28;20076;-69
2021/11/20 01:46:23;;;;;;;33.67;19.90;;;7.70;78.20;;;;;;5013459;28;20018;-69
2021/11/20 01:49:16;;;;;;;30.10;19.43;;;7.70;78.10;;;;;;5013314;28;20105;-70
2021/11/20 01:51:52;;;;;;;28.88;20.02;;;7.70;77.90;;;;;;5013446;28;20053;-69
2021/11/20 01:54:30;;;;;;;28.97;19.20;;;7.70;77.60;;;;;;5013084;28;20026;-70
2021/11/20 01:57:10;;;;;;;39.93;18.63;;;7.70;77.60;;;;;;5013417;28;20441;-70
2021/11/20 02:00:15;;;;;;;27.47;17.20;;;7.60;78.20;;;;;;4983727;28;20464;-70
2021/11/20 02:02:56;;;;;;;23.70;14.80;;;7.60;77.60;;;;;;4951049;28;20047;-70
2021/11/20 02:05:27;;;;;;;25.17;15.20;;;7.60;77.50;;;;;;4973089;28;20019;-69
2021/11/20 02:08:15;;;;;;;26.57;15.43;;;7.60;77.50;;;;;;4973993;28;20050;-69
2021/11/20 02:10:49;;;;;;;26.50;17.70;;;7.60;77.20;;;;;;4973909;28;20023;-70
2021/11/20 02:13:19;;;;;;;26.37;17.73;;;7.50;77.00;;;;;;4973805;28;20077;-69
2021/11/20 02:16:05;;;;;;;26.67;16.73;;;7.50;76.60;;;;;;4974106;28;20030;-70
2021/11/20 02:18:39;;;;;;;29.73;17.93;;;7.40;76.50;;;;;;4972671;28;20026;-70
2021/11/20 02:21:04;;;;;;;27.43;17.47;;;7.40;76.60;;;;;;4973677;28;20582;-70
2021/11/20 02:23:30;;;;;;;26.73;17.53;;;7.40;76.80;;;;;;4974349;28;20122;-70
2021/11/20 02:25:55;;;;;;;30.30;18.10;;;7.30;77.00;;;;;;4974052;28;20094;-69
2021/11/20 02:28:21;;;;;;;25.30;16.57;;;7.30;77.00;;;;;;4974936;28;20471;-69
2021/11/20 02:30:48;;;;;;;24.30;16.77;;;7.30;77.10;;;;;;4977752;28;20031;-69
2021/11/20 02:33:37;;;;;;;22.30;16.47;;;7.30;77.40;;;;;;4977801;28;20033;-70
2021/11/20 02:36:12;;;;;;;22.17;16.20;;;7.20;77.30;;;;;;4971968;28;20380;-70
2021/11/20 02:38:42;;;;;;;23.53;16.43;;;7.20;77.50;;;;;;4977405;28;20093;-69
2021/11/20 02:41:11;;;;;;;20.80;14.50;;;7.20;77.90;;;;;;4977384;28;20038;-69
2021/11/20 02:43:40;;;;;;;25.23;15.23;;;7.10;78.30;;;;;;4977311;28;20045;-69
2021/11/20 02:46:09;;;;;;;22.70;15.07;;;7.20;78.20;;;;;;4977384;28;20028;-70
2021/11/20 02:48:35;;;;;;;24.00;15.50;;;7.20;78.10;;;;;;4976083;28;20034;-69
2021/11/20 02:51:11;;;;;;;23.40;15.13;;;7.20;78.20;;;;;;4977000;28;20049;-70
2021/11/20 02:53:44;;;;;;;24.30;15.07;;;7.20;78.00;;;;;;4976142;28;20019;-69
2021/11/20 02:56:14;;;;;;;22.63;15.70;;;7.20;77.80;;;;;;4977096;28;20034;-70
2021/11/20 02:58:40;;;;;;;25.53;15.73;;;7.20;77.50;;;;;;4976883;28;20391;-69
2021/11/20 03:01:17;;;;;;;24.40;16.27;;;7.20;77.30;;;;;;5011986;28;20704;-70
2021/11/20 03:03:43;;;;;;;29.40;16.80;;;7.20;77.10;;;;;;5016316;28;20037;-70
2021/11/20 03:06:09;;;;;;;29.50;16.27;;;7.10;76.90;;;;;;5016140;28;20022;-69
2021/11/20 03:08:35;;;;;;;32.57;17.93;;;7.10;77.00;;;;;;5016212;28;20109;-69
2021/11/20 03:11:01;;;;;;;26.73;15.97;;;7.10;77.00;;;;;;5016040;28;20169;-69
2021/11/20 03:13:26;;;;;;;25.10;15.97;;;7.00;77.10;;;;;;5016127;28;20113;-69
2021/11/20 03:15:52;;;;;;;23.07;14.77;;;7.10;77.30;;;;;;5016096;28;20135;-69
2021/11/20 03:18:18;;;;;;;24.00;14.73;;;7.00;77.50;;;;;;4998293;28;20038;-69
2021/11/20 03:20:45;;;;;;;22.80;14.73;;;7.00;77.50;;;;;;5015694;28;20038;-69
2021/11/20 03:23:19;;;;;;;21.20;14.47;;;7.00;77.50;;;;;;5015985;28;20025;-69
2021/11/20 03:25:44;;;;;;;28.17;13.87;;;7.00;77.50;;;;;;5015696;28;20022;-69
2021/11/20 03:28:11;;;;;;;21.63;13.57;;;7.00;77.50;;;;;;5015694;28;20022;-69
2021/11/20 03:30:37;;;;;;;23.70;13.93;;;7.00;77.40;;;;;;5015506;28;20014;-69
2021/11/20 03:33:03;;;;;;;26.63;15.27;;;7.00;77.30;;;;;;5015747;28;20060;-69
2021/11/20 03:35:30;;;;;;;22.90;14.47;;;7.00;77.20;;;;;;5015789;28;20018;-69
2021/11/20 03:37:56;;;;;;;25.73;15.63;;;6.90;77.00;;;;;;5015489;28;20033;-69
2021/11/20 03:40:23;;;;;;;29.73;15.50;;;6.90;77.10;;;;;;5014461;28;20125;-69
2021/11/20 03:42:49;;;;;;;27.97;16.03;;;6.80;76.90;;;;;;5015663;28;20033;-69
2021/11/20 03:45:17;;;;;;;26.17;15.37;;;6.80;76.80;;;;;;5015484;28;20025;-69
2021/11/20 03:47:43;;;;;;;23.03;15.70;;;6.80;76.90;;;;;;5015154;28;20431;-69
2021/11/20 03:50:11;;;;;;;22.20;15.87;;;6.70;76.90;;;;;;5015233;28;20068;-69
2021/11/20 03:52:37;;;;;;;28.03;16.17;;;6.70;77.10;;;;;;5015256;28;20022;-69
2021/11/20 03:55:06;;;;;;;25.30;15.00;;;6.70;77.10;;;;;;5015077;28;20174;-69
2021/11/20 03:57:32;;;;;;;26.87;15.47;;;6.70;77.10;;;;;;5015407;28;20060;-69
2021/11/20 03:59:58;;;;;;;24.33;16.03;;;6.70;77.20;;;;;;5014981;28;20124;-69
2021/11/20 04:02:23;;;;;;;26.57;16.13;;;6.70;77.00;;;;;;5015095;28;20057;-69
2021/11/20 04:04:49;;;;;;;22.33;15.50;;;6.70;77.10;;;;;;5015152;28;20018;-69
2021/11/20 04:07:15;;;;;;;28.47;15.57;;;6.70;77.10;;;;;;4997669;28;20222;-69
2021/11/20 04:09:41;;;;;;;25.00;15.43;;;6.70;77.00;;;;;;5014835;28;20024;-69
2021/11/20 04:12:08;;;;;;;26.17;16.43;;;6.60;77.00;;;;;;5015177;28;20374;-69
2021/11/20 04:14:33;;;;;;;24.90;15.63;;;6.60;77.00;;;;;;5014964;28;20490;-69
2021/11/20 04:17:00;;;;;;;26.00;15.70;;;6.60;76.90;;;;;;4997256;28;20061;-69
2021/11/20 04:19:25;;;;;;;28.07;15.67;;;6.60;77.20;;;;;;5014737;28;20029;-69
2021/11/20 04:21:52;;;;;;;23.30;15.00;;;6.50;77.10;;;;;;5014702;28;20029;-69
2021/11/20 04:24:18;;;;;;;24.47;15.13;;;6.60;77.20;;;;;;5014490;28;20053;-69
2021/11/20 04:26:44;;;;;;;29.50;16.53;;;6.50;77.10;;;;;;5015088;28;20109;-69
2021/11/20 04:29:10;;;;;;;26.83;15.60;;;6.50;77.00;;;;;;5014526;28;20459;-70
2021/11/20 04:31:37;;;;;;;21.73;15.40;;;6.50;77.10;;;;;;5014494;28;20026;-69
2021/11/20 04:34:03;;;;;;;26.73;16.10;;;6.50;77.10;;;;;;5014435;28;20022;-69
2021/11/20 04:36:29;;;;;;;27.47;15.90;;;6.40;76.90;;;;;;5014800;28;20068;-69
2021/11/20 04:38:55;;;;;;;22.20;14.47;;;6.40;76.80;;;;;;5014388;28;20032;-69
2021/11/20 04:41:21;;;;;;;30.33;16.23;;;6.40;76.90;;;;;;5014015;28;20034;-69
2021/11/20 04:43:48;;;;;;;27.07;15.53;;;6.40;76.90;;;;;;5014465;28;20022;-69
2021/11/20 04:46:16;;;;;;;26.93;15.30;;;6.40;76.90;;;;;;5014394;28;20033;-69
2021/11/20 04:48:42;;;;;;;25.37;16.00;;;6.40;77.10;;;;;;5014286;28;20380;-69
2021/11/20 04:51:09;;;;;;;26.77;16.20;;;6.40;77.40;;;;;;5013955;28;20026;-69
2021/11/20 04:53:37;;;;;;;24.23;15.00;;;6.40;77.20;;;;;;5014087;28;20026;-69
2021/11/20 04:56:04;;;;;;;25.97;15.60;;;6.40;77.00;;;;;;5014263;28;20041;-69
2021/11/20 04:58:30;;;;;;;24.57;14.97;;;6.30;77.00;;;;;;5014293;28;20124;-69
2021/11/20 05:00:58;;;;;;;25.20;14.30;;;6.30;77.10;;;;;;5013923;28;20053;-70
2021/11/20 05:03:24;;;;;;;25.57;15.23;;;6.30;77.00;;;;;;5014401;28;20374;-69
2021/11/20 05:05:52;;;;;;;22.40;14.23;;;6.30;77.00;;;;;;5013914;28;20033;-69
2021/11/20 05:08:20;;;;;;;24.20;15.00;;;6.30;76.90;;;;;;5014100;28;20062;-69
2021/11/20 05:10:47;;;;;;;24.17;13.53;;;6.30;76.80;;;;;;5013919;28;20423;-69
2021/11/20 05:13:13;;;;;;;26.53;14.87;;;6.30;77.00;;;;;;5013948;28;20101;-69
2021/11/20 05:15:41;;;;;;;19.10;13.80;;;6.20;77.00;;;;;;5013623;28;20127;-69
2021/11/20 05:18:08;;;;;;;20.33;13.57;;;6.20;77.30;;;;;;5014247;28;20033;-69
2021/11/20 05:20:35;;;;;;;21.70;14.07;;;6.20;77.90;;;;;;5013736;28;20433;-70
2021/11/20 05:23:00;;;;;;;24.47;14.27;;;6.20;78.10;;;;;;5013485;28;20076;-69
2021/11/20 05:25:27;;;;;;;21.30;14.63;;;6.20;78.10;;;;;;5014007;28;20026;-69
2021/11/20 05:27:53;;;;;;;20.60;14.20;;;6.20;78.00;;;;;;5013805;28;20033;-69
2021/11/20 05:30:29;;;;;;;21.73;13.27;;;6.20;78.20;;;;;;5013479;28;20030;-69
2021/11/20 05:32:57;;;;;;;21.67;13.80;;;6.30;78.00;;;;;;5013467;28;20371;-70
2021/11/20 05:35:25;;;;;;;19.33;13.47;;;6.20;77.50;;;;;;5013526;28;20053;-69
2021/11/20 05:37:52;;;;;;;20.63;13.13;;;6.20;77.30;;;;;;5013535;28;20018;-69
2021/11/20 05:40:19;;;;;;;17.57;12.50;;;6.10;77.80;;;;;;5013478;28;20034;-69
2021/11/20 05:42:48;;;;;;;20.30;12.97;;;6.10;78.20;;;;;;5013348;28;20137;-69
2021/11/20 05:45:15;;;;;;;21.90;13.83;;;6.10;78.30;;;;;;5013278;28;20029;-69
2021/11/20 05:47:41;;;;;;;21.53;13.30;;;6.10;78.40;;;;;;5013688;28;20382;-75
2021/11/20 05:50:08;;;;;;;20.97;13.27;;;6.10;78.00;;;;;;5013292;28;20022;-69
2021/11/20 05:52:34;;;;;;;23.07;13.70;;;6.10;78.30;;;;;;5013170;28;20048;-70
2021/11/20 05:55:00;;;;;;;21.20;13.03;;;6.10;77.60;;;;;;5013256;28;20026;-69
2021/11/20 05:57:26;;;;;;;19.50;13.00;;;6.10;77.50;;;;;;5013290;28;20387;-69
2021/11/20 05:59:52;;;;;;;22.13;14.00;;;6.10;77.40;;;;;;5012957;28;20050;-69
2021/11/20 06:02:18;;;;;;;21.13;13.30;;;6.10;77.20;;;;;;5013143;28;20026;-69
2021/11/20 06:04:44;;;;;;;22.40;13.93;;;6.00;77.10;;;;;;5016829;28;20022;-68
2021/11/20 06:07:13;;;;;;;21.17;12.80;;;6.00;77.00;;;;;;5017356;28;20029;-69
2021/11/20 06:09:40;;;;;;;18.37;13.10;;;6.00;77.00;;;;;;5017219;28;20474;-69
2021/11/20 06:12:07;;;;;;;19.10;12.70;;;6.00;77.10;;;;;;5017545;28;20390;-69
2021/11/20 06:14:33;;;;;;;20.50;12.73;;;6.00;77.20;;;;;;5017279;28;20031;-69
2021/11/20 06:16:59;;;;;;;20.30;11.33;;;5.90;77.30;;;;;;5017064;28;20037;-69
2021/11/20 06:19:25;;;;;;;19.00;11.37;;;5.90;77.60;;;;;;5016875;28;20128;-69
2021/11/20 06:21:51;;;;;;;15.93;10.33;;;5.90;77.90;;;;;;5017216;28;20042;-69
2021/11/20 06:24:16;;;;;;;15.10;10.37;;;5.90;78.40;;;;;;5017066;28;20026;-69
2021/11/20 06:26:43;;;;;;;16.17;10.80;;;6.00;78.40;;;;;;5016891;28;20435;-69
2021/11/20 06:29:09;;;;;;;16.27;10.67;;;5.90;78.40;;;;;;5016330;28;20029;-69
2021/11/20 06:31:35;;;;;;;19.67;11.23;;;5.90;78.40;;;;;;5015330;28;20379;-69
2021/11/20 06:34:02;;;;;;;15.23;10.47;;;5.90;78.70;;;;;;5013520;28;20019;-69
2021/11/20 06:36:29;;;;;;;16.70;10.97;;;5.90;78.80;;;;;;5013841;28;20080;-69
2021/11/20 06:38:55;;;;;;;20.43;11.83;;;5.90;78.70;;;;;;5015704;28;20025;-69
2021/11/20 06:41:21;;;;;;;23.57;13.27;;;6.00;78.50;;;;;;5016179;28;20022;-71
2021/11/20 06:43:47;;;;;;;16.90;12.17;;;6.00;78.20;;;;;;5016723;28;20526;-69
2021/11/20 06:46:15;;;;;;;23.57;12.97;;;5.90;78.10;;;;;;5016687;28;20479;-69
2021/11/20 06:48:42;;;;;;;24.17;14.23;;;5.90;78.40;;;;;;4998925;28;20466;-73
2021/11/20 06:51:09;;;;;;;32.43;15.93;;;5.90;78.20;;;;;;4998650;28;20029;-73
2021/11/20 06:53:37;;;;;;;28.07;15.80;;;5.90;78.20;;;;;;5016205;28;20049;-73
2021/11/20 06:56:04;;;;;;;39.40;17.17;;;5.90;78.10;;;;;;5016349;28;20029;-73
2021/11/20 07:01:07;;;;;;;24.60;14.40;;;6.00;78.30;;;;;;5015972;28;20049;-73
2021/11/20 07:03:46;;;;;;;24.17;13.67;;;6.00;78.40;;;;;;5016057;28;20479;-73
2021/11/20 07:06:28;;;;;;;21.73;13.60;;;6.00;78.30;;;;;;5016046;28;20156;-73
2021/11/20 07:08:55;;;;;;;20.87;13.53;;;6.00;78.40;;;;;;5016068;28;20107;-70
2021/11/20 07:11:22;;;;;;;22.60;13.83;;;6.10;78.50;;;;;;5015898;28;20022;-71
2021/11/20 07:13:49;;;;;;;22.47;13.70;;;6.10;78.50;;;;;;5013778;28;20453;-71
2021/11/20 07:16:16;;;;;;;24.50;14.13;;;6.20;78.60;;;;;;5013043;28;20422;-71
2021/11/20 07:18:43;;;;;;;34.73;16.20;;;6.20;79.00;;;;;;5014231;28;20030;-71
2021/11/20 07:21:10;;;;;;;28.73;15.87;;;6.30;78.90;;;;;;5015818;28;20030;-71
2021/11/20 07:23:36;;;;;;;29.87;16.20;;;6.30;79.10;;;;;;5015839;28;20105;-71
2021/11/20 07:26:05;;;;;;;24.37;15.47;;;6.30;79.20;;;;;;5015510;28;20049;-68
2021/11/20 07:28:31;;;;;;;32.80;15.87;;;6.40;79.60;;;;;;5015585;28;20026;-68
2021/11/20 07:30:58;;;;;;;37.03;16.80;;;6.50;79.90;;;;;;5015582;28;20038;-67
2021/11/20 07:33:24;;;;;;;52.37;21.03;;;6.60;79.90;;;;;;5015736;28;20049;-67
2021/11/20 07:35:54;;;;;;;55.60;23.70;;;6.70;79.60;;;;;;5015499;28;20390;-68
2021/11/20 07:38:28;;;;;;;61.43;25.40;;;6.70;79.40;;;;;;5013832;28;20029;-68
2021/11/20 07:40:54;;;;;;;55.00;23.83;;;6.80;80.30;;;;;;5012613;28;20038;-68
2021/11/20 07:43:20;;;;;;;44.80;19.80;;;6.80;79.80;;;;;;5012597;28;20074;-68
2021/11/20 07:45:46;;;;;;;38.87;19.10;;;6.90;79.40;;;;;;5014434;28;20186;-68
2021/11/20 07:48:15;;;;;;;41.63;17.77;;;7.00;78.80;;;;;;5014839;28;20105;-68
2021/11/20 07:50:44;;;;;;;34.23;17.57;;;7.00;78.80;;;;;;5015122;28;20029;-68
2021/11/20 07:53:10;;;;;;;29.40;16.40;;;7.10;78.90;;;;;;5014670;28;20084;-68
2021/11/20 07:55:36;;;;;;;39.60;16.47;;;7.10;79.00;;;;;;4995817;28;20041;-68
2021/11/20 07:58:04;;;;;;;34.23;15.97;;;7.20;79.40;;;;;;5014315;28;20033;-68
2021/11/20 08:00:30;;;;;;;46.93;17.47;;;7.30;79.50;;;;;;5013019;28;20093;-68
2021/11/20 08:02:56;;;;;;;42.33;17.40;;;7.30;79.10;;;;;;5014566;28;20038;-68
2021/11/20 08:05:25;;;;;;;40.20;15.70;;;7.40;79.60;;;;;;5014930;28;20029;-68
2021/11/20 08:07:51;;;;;;;39.63;14.13;;;7.50;79.70;;;;;;5014809;28;20029;-68
2021/11/20 08:10:17;;;;;;;34.43;14.47;;;7.60;78.90;;;;;;5014205;28;20367;-69
2021/11/20 08:12:44;;;;;;;28.50;13.20;;;7.70;78.30;;;;;;5014174;28;20021;-69
2021/11/20 08:15:11;;;;;;;20.63;11.97;;;7.70;78.30;;;;;;5014114;28;20482;-68
2021/11/20 08:17:37;;;;;;;29.50;10.90;;;7.80;78.70;;;;;;5014397;28;20439;-69
2021/11/20 08:20:06;;;;;;;33.30;12.57;;;7.90;78.50;;;;;;5014728;28;20026;-70
2021/11/20 08:22:32;;;;;;;44.90;12.87;;;8.00;78.50;;;;;;5014255;28;20037;-68
2021/11/20 08:24:58;;;;;;;44.53;12.40;;;8.00;78.20;;;;;;5014694;28;20053;-68
2021/11/20 08:27:24;;;;;;;34.77;12.83;;;8.10;78.10;;;;;;5014143;28;20058;-68
2021/11/20 08:29:49;;;;;;;35.50;13.37;;;8.10;77.90;;;;;;4996908;28;20026;-69
2021/11/20 08:32:15;;;;;;;55.90;17.33;;;8.20;77.60;;;;;;5014180;28;20033;-69
2021/11/20 08:34:42;;;;;;;56.43;17.47;;;8.30;77.40;;;;;;5014361;28;20029;-68
2021/11/20 08:37:09;;;;;;;56.00;18.77;;;8.30;77.20;;;;;;5014478;28;20029;-69
2021/11/20 08:39:36;;;;;;;57.83;17.00;;;8.40;77.00;;;;;;5013883;28;20052;-69
2021/11/20 08:42:03;;;;;;;57.73;18.03;;;8.50;76.60;;;;;;5014144;28;20457;-68
2021/11/20 08:44:29;;;;;;;41.10;14.77;;;8.50;76.40;;;;;;5014216;28;20030;-68
2021/11/20 08:46:55;;;;;;;55.37;16.53;;;8.60;76.50;;;;;;5014024;28;20134;-69
2021/11/20 08:49:22;;;;;;;44.40;15.67;;;8.70;76.50;;;;;;5014081;28;20114;-69
2021/11/20 08:51:50;;;;;;;41.53;14.63;;;8.80;76.20;;;;;;5013966;28;20117;-69
2021/11/20 08:54:16;;;;;;;31.33;13.93;;;8.90;76.20;;;;;;5013475;28;20080;-68
2021/11/20 08:56:45;;;;;;;51.10;15.97;;;8.90;76.30;;;;;;5013960;28;20022;-68
2021/11/20 08:59:13;;;;;;;35.50;13.50;;;9.00;76.20;;;;;;5013719;28;20033;-69
2021/11/20 09:02:12;;;;;;;28.60;12.93;;;9.00;75.70;;;;;;4996129;28;20041;-69
2021/11/20 09:04:49;;;;;;;27.33;11.70;;;9.10;75.10;;;;;;5013980;28;20022;-69
2021/11/20 09:07:26;;;;;;;26.40;11.67;;;9.20;74.80;;;;;;5014129;28;20029;-70
2021/11/20 09:10:03;;;;;;;23.70;13.43;;;9.30;74.80;;;;;;5014004;28;20029;-68
2021/11/20 09:12:44;;;;;;;27.80;12.43;;;9.40;74.90;;;;;;5014417;28;20034;-69
2021/11/20 09:15:20;;;;;;;43.33;14.60;;;9.40;75.00;;;;;;5013999;28;20022;-69
2021/11/20 09:17:47;;;;;;;37.90;16.00;;;9.50;75.00;;;;;;5013968;28;20124;-69
2021/11/20 09:20:14;;;;;;;47.90;14.47;;;9.60;75.40;;;;;;5013674;28;20463;-69
2021/11/20 09:22:40;;;;;;;42.33;16.23;;;9.60;75.90;;;;;;4996184;28;20034;-69
2021/11/20 09:25:07;;;;;;;40.50;15.53;;;9.70;75.50;;;;;;5013731;28;20018;-68
2021/11/20 09:27:33;;;;;;;39.60;13.73;;;9.80;75.70;;;;;;5013684;28;20025;-69
2021/11/20 09:29:58;;;;;;;28.57;12.53;;;9.80;75.30;;;;;;5013707;28;20022;-68
2021/11/20 09:32:24;;;;;;;35.30;13.60;;;9.90;74.90;;;;;;5013568;28;20390;-68
2021/11/20 09:34:50;;;;;;;37.00;12.80;;;10.00;74.20;;;;;;5013617;28;20029;-68
2021/11/20 09:37:16;;;;;;;33.43;13.10;;;10.00;74.10;;;;;;5013015;28;20488;-69
2021/11/20 09:39:43;;;;;;;31.40;11.57;;;10.10;73.90;;;;;;5013258;28;20109;-69
2021/11/20 09:42:15;;;;;;;24.93;12.00;;;10.10;73.80;;;;;;5013436;28;20034;-68
2021/11/20 09:44:45;;;;;;;30.90;12.83;;;10.20;73.60;;;;;;5013717;28;20425;-69
2021/11/20 09:47:32;;;;;;;20.93;13.10;;;10.30;73.90;;;;;;4996027;28;20478;-69
2021/11/20 09:50:17;;;;;;;23.00;11.40;;;10.40;73.90;;;;;;5013490;28;20022;-69
2021/11/20 09:52:45;;;;;;;17.40;11.10;;;10.50;74.00;;;;;;5013364;28;20475;-69
2021/11/20 09:55:17;;;;;;;18.43;12.50;;;10.50;73.90;;;;;;5013518;28;20030;-68
2021/11/20 09:57:48;;;;;;;17.25;11.90;;;10.60;73.50;;;;;;5013907;28;20367;-69
2021/11/20 10:00:41;;;;;;;17.83;12.00;;;10.70;73.40;;;;;;5013130;28;20053;-69
2021/11/20 10:03:08;;;;;;;;;;;10.80;73.50;;;;;;5013790;28;20038;-69
2021/11/20 10:05:43;;;;;;;19.08;11.60;;;10.90;73.00;;;;;;5013273;28;19905;-68
2021/11/20 10:08:24;;;;;;;18.48;13.05;;;11.00;73.40;;;;;;5013475;28;20037;-69
2021/11/20 10:11:12;;;;;;;19.02;12.98;;;11.10;73.60;;;;;;4995768;28;20029;-69
2021/11/20 10:14:01;;;;;;;22.55;13.25;;;11.20;73.70;;;;;;5012275;28;20072;-69
2021/11/20 10:16:38;;;;;;;18.23;13.50;;;11.30;73.40;;;;;;5013299;28;20076;-69
2021/11/20 10:19:17;;;;;;;20.02;13.02;;;11.40;72.90;;;;;;5013166;28;20053;-69
2021/11/20 10:21:54;;;;;;;20.80;13.48;;;11.50;73.00;;;;;;5013185;28;20124;-69
2021/11/20 10:25:10;;;;;;;18.40;12.77;;;11.50;72.60;;;;;;5013113;28;20490;-69
2021/11/20 10:28:11;;;;;;;17.80;12.35;;;11.60;72.60;;;;;;4914572;29;20036;-69
2021/11/20 10:31:24;;;;;;;19.23;13.13;;;11.70;72.00;;;;;;4914719;29;20028;-69
2021/11/20 10:34:15;;;;;;;20.67;13.60;;;11.80;71.90;;;;;;4991787;28;20030;-69
2021/11/20 10:36:48;;;;;;;20.60;13.27;;;11.90;71.60;;;;;;5013242;28;20054;-69
2021/11/20 10:39:42;;;;;;;19.48;13.40;;;12.00;70.90;;;;;;5013000;28;20029;-69
2021/11/20 10:42:39;;;;;;;18.30;13.35;;;12.10;71.20;;;;;;5009839;28;20050;-69
2021/11/20 10:45:07;;;;;;;20.38;12.82;;;12.10;70.90;;;;;;5012837;28;20070;-69
2021/11/20 10:47:39;;;;;;;17.63;12.68;;;12.20;70.70;;;;;;5012898;28;20030;-68
2021/11/20 10:50:24;;;;;;;18.58;12.52;;;12.30;70.90;;;;;;5015414;28;20024;-69
2021/11/20 10:53:27;;;;;;;21.23;12.63;;;12.40;70.50;;;;;;5016703;28;20105;-69
2021/11/20 10:56:11;;;;;;;19.23;12.23;;;12.50;69.90;;;;;;5016599;28;20038;-69
2021/11/20 10:59:10;;;;;;;17.05;11.13;;;12.50;68.50;;;;;;5016521;28;20026;-68
2021/11/20 11:02:09;;;;;;;15.35;10.65;;;12.50;68.20;;;;;;4980657;28;20484;-69
2021/11/20 11:04:59;;;;;;;17.17;10.18;;;12.60;67.60;;;;;;5016403;28;20101;-69
2021/11/20 11:07:27;;;;;;;15.45;9.90;;;12.70;67.70;;;;;;5016171;28;20045;-69
2021/11/20 11:10:01;;;;;;;17.17;10.27;;;12.70;67.50;;;;;;5016291;28;20036;-68
2021/11/20 11:12:45;;;;;;;20.88;11.00;;;12.80;67.40;;;;;;5016165;28;20548;-69
2021/11/20 11:15:34;;;;;;;17.40;10.50;;;12.90;67.90;;;;;;5016326;28;20581;-69
2021/11/20 11:18:30;;;;;;;16.08;9.50;;;13.00;67.40;;;;;;5016139;28;20033;-69
2021/11/20 11:21:23;;;;;;;21.83;9.80;;;13.00;66.80;;;;;;5015752;28;20038;-69
2021/11/20 11:24:16;;;;;;;22.33;9.50;;;13.10;67.20;;;;;;5016189;28;20517;-69
2021/11/20 11:27:09;;;;;;;16.58;9.90;;;13.20;66.50;;;;;;4998298;28;20032;-69
2021/11/20 11:30:02;;;;;;;26.30;10.60;;;13.30;67.00;;;;;;5015629;28;20026;-69
2021/11/20 11:32:31;;;;;;;22.77;10.80;;;13.30;66.80;;;;;;5016017;28;20010;-69
2021/11/20 11:35:10;;;;;;;22.45;11.30;;;13.40;66.60;;;;;;5015633;28;20497;-69
2021/11/20 11:38:08;;;;;;;23.85;11.75;;;13.50;67.50;;;;;;5015763;28;20421;-69
2021/11/20 11:40:59;;;;;;;17.10;11.25;;;13.50;67.30;;;;;;4969805;28;20434;-69
2021/11/20 11:43:27;;;;;;;16.50;12.30;;;13.60;68.90;;;;;;5015606;28;20034;-69
2021/11/20 11:46:17;;;;;;;17.00;12.55;;;13.60;68.50;;;;;;5015611;28;20084;-69
2021/11/20 11:49:01;;;;;;;18.50;12.07;;;13.60;69.40;;;;;;4981810;28;20030;-69
2021/11/20 11:52:01;;;;;;;17.50;12.85;;;13.60;69.40;;;;;;5015483;28;20415;-69
2021/11/20 11:54:40;;;;;;;22.13;13.82;;;13.70;69.10;;;;;;4998147;28;20050;-68
2021/11/20 11:57:12;;;;;;;20.35;13.75;;;13.70;69.20;;;;;;5015438;28;20025;-69
2021/11/20 11:59:50;;;;;;;20.77;15.27;;;13.80;69.80;;;;;;5011970;28;20050;-69
2021/11/20 12:02:37;;;;;;;21.08;14.55;;;13.80;70.00;;;;;;5011550;28;20096;-68
2021/11/20 12:05:32;;;;;;;22.83;16.27;;;13.80;69.90;;;;;;5014777;28;20105;-69
2021/11/20 12:08:22;;;;;;;22.60;16.13;;;13.80;69.80;;;;;;5015480;28;20030;-69
2021/11/20 12:10:58;;;;;;;22.80;17.08;;;13.80;70.60;;;;;;5014914;28;20497;-69
2021/11/20 12:13:34;;;;;;;26.25;17.40;;;13.80;71.10;;;;;;5015176;28;20037;-69
2021/11/20 12:16:02;;;;;;;23.25;17.50;;;13.90;71.20;;;;;;5015300;28;20022;-69
2021/11/20 12:18:39;;;;;;;25.90;19.45;;;13.90;71.10;;;;;;5014984;28;20060;-69
2021/11/20 12:21:18;;;;;;;25.42;19.67;;;13.90;71.80;;;;;;5014689;28;20084;-69
2021/11/20 12:23:58;;;;;;;29.20;20.50;;;13.90;71.60;;;;;;5013085;28;20049;-69
2021/11/20 12:26:42;;;;;;;28.58;19.88;;;13.90;71.50;;;;;;5011889;28;20034;-69
2021/11/20 12:29:39;;;;;;;29.70;21.30;;;13.90;71.50;;;;;;5011974;28;20057;-69
2021/11/20 12:32:43;;;;;;;25.10;20.67;;;14.00;71.70;;;;;;5014371;28;20029;-69
2021/11/20 12:35:31;;;;;;;32.17;20.85;;;14.00;71.20;;;;;;4927816;28;20044;-69
2021/11/20 12:38:21;;;;;;;28.30;21.95;;;14.00;71.40;;;;;;5014069;28;20022;-69
2021/11/20 12:41:05;;;;;;;31.90;23.05;;;13.90;71.60;;;;;;5014156;28;20018;-69
2021/11/20 12:43:45;;;;;;;34.92;23.05;;;14.00;71.20;;;;;;5014314;28;20398;-69
2021/11/20 12:46:46;;;;;;;35.10;24.30;;;14.00;72.00;;;;;;4996383;28;20083;-69
2021/11/20 12:49:49;;;;;;;33.70;24.48;;;14.00;71.50;;;;;;5014156;28;20508;-69
2021/11/20 12:52:27;;;;;;;35.50;24.50;;;14.00;71.90;;;;;;5014226;28;20026;-69
2021/11/20 12:54:58;;;;;;;35.78;24.67;;;14.00;71.40;;;;;;5014328;28;20030;-69
2021/11/20 12:57:30;;;;;;;36.38;26.35;;;13.90;71.80;;;;;;5014428;28;20450;-69
2021/11/20 13:00:24;;;;;;;32.58;24.35;;;13.90;72.00;;;;;;5013859;28;20054;-69
2021/11/20 13:03:12;;;;;;;40.78;25.52;;;13.80;71.80;;;;;;5014007;28;20040;-69
2021/11/20 13:05:55;;;;;;;33.60;25.38;;;13.80;71.40;;;;;;5001018;28;20386;-69